Hurghada, Egypt
Current Conditions -  °F | °C
As of 6:00 PM on Friday 28 Nov 2014 (Local Time) from HEGN Reporting Station
Clear Clear  
Wind Chill: 68°   Ceiling: Unl
Heat Index: 68°   Visibility: 6mi
Dew Point: 52°   Wind: 6mph
Humidity: 56%   Direction: 350°N
Pressure: 30.15"   Gusts: NA
Location:  27.23°N, 33.83°E
Report Text: HEGN 281600Z 35005KT CAVOK 20/11 Q1021 NOSIG
Loading
Personal Weather Stations






























Interactive Weather Map New forecast layout! Learn more

10-Day Weather Forecast

Advertisements
Track Severe Weather on mobile